Kealia, Hawaii
Current Conditions -  °F | °C
As of 5:53 AM on Thursday 30 Oct 2014 (Local Time) from PHLI Reporting Station
Few Clouds Few Clouds  
Wind Chill: 77°   Ceiling: Unl
Heat Index: 79°   Visibility: 10mi
Dew Point: 69°   Wind: 14mph
Humidity: 76%   Direction: 50°NE
Pressure: 30.08"   Gusts: NA
Location:  22.09°N, 159.44°W
Report Text: PHLI 301553Z 05012KT 10SM FEW022 25/21 A3008 RMK AO2 SLP183 T02500206 $
Loading
Personal Weather Stations






























Interactive Weather Map
Tropical Storm Tracking
New forecast layout! Learn more

10-Day Weather Forecast

Advertisements
Track Severe Weather on mobile